createdAt,value
2016-09-27T00:01:32.944Z,-81
2016-09-27T00:06:31.001Z,-80
2016-09-27T00:11:27.212Z,-80
2016-09-27T00:16:24.302Z,-82
2016-09-27T00:21:20.698Z,-78
2016-09-27T00:26:17.171Z,-79
2016-09-27T00:31:13.637Z,-80
2016-09-27T00:36:10.405Z,-79
2016-09-27T00:41:07.021Z,-78
2016-09-27T00:46:03.294Z,-81
2016-09-27T00:50:59.844Z,-82
2016-09-27T00:55:56.177Z,-81
2016-09-27T01:00:52.633Z,-80
2016-09-27T01:05:49.361Z,-81
2016-09-27T01:10:45.754Z,-81
2016-09-27T01:15:42.338Z,-79
2016-09-27T01:20:38.909Z,-81
2016-09-27T01:25:35.577Z,-79
2016-09-27T01:30:32.198Z,-82
2016-09-27T01:35:28.814Z,-82
2016-09-27T01:40:25.357Z,-82
2016-09-27T01:45:22.307Z,-81
2016-09-27T01:50:18.878Z,-79
2016-09-27T01:55:15.458Z,-80
2016-09-27T02:00:11.701Z,-80
2016-09-27T02:05:07.945Z,-81
2016-09-27T02:10:04.354Z,-81
2016-09-27T02:15:00.909Z,-81
2016-09-27T02:19:57.683Z,-81
2016-09-27T02:24:54.225Z,-81
2016-09-27T02:29:50.740Z,-81
2016-09-27T02:34:48.444Z,-82
2016-09-27T02:39:44.608Z,-81
2016-09-27T02:44:41.041Z,-80
2016-09-27T02:49:37.438Z,-81
2016-09-27T02:54:33.917Z,-80
2016-09-27T02:59:30.337Z,-81
2016-09-27T03:04:26.788Z,-80
2016-09-27T03:09:23.288Z,-81
2016-09-27T03:14:19.929Z,-81
2016-09-27T03:19:16.859Z,-81
2016-09-27T03:24:14.171Z,-81
2016-09-27T03:29:10.595Z,-81
2016-09-27T03:34:07.184Z,-80
2016-09-27T03:39:06.282Z,-81
2016-09-27T03:44:02.669Z,-80
2016-09-27T03:48:59.256Z,-81
2016-09-27T03:53:55.793Z,-81
2016-09-27T03:58:52.295Z,-79
2016-09-27T04:03:51.177Z,-78
2016-09-27T04:08:46.995Z,-79
2016-09-27T04:13:43.748Z,-80
2016-09-27T04:18:40.850Z,-81
2016-09-27T04:23:37.499Z,-81
2016-09-27T04:28:33.632Z,-78
2016-09-27T04:33:30.437Z,-82
2016-09-27T04:38:26.761Z,-79
2016-09-27T04:43:24.141Z,-77
2016-09-27T04:48:20.042Z,-79
2016-09-27T04:53:16.741Z,-78
2016-09-27T04:58:13.115Z,-80
2016-09-27T05:03:09.394Z,-81
2016-09-27T05:08:06.834Z,-79
2016-09-27T05:13:03.166Z,-80
2016-09-27T05:17:59.691Z,-79
2016-09-27T05:22:55.847Z,-80
2016-09-27T05:27:52.763Z,-79
2016-09-27T05:32:49.370Z,-81
2016-09-27T05:37:45.975Z,-80
2016-09-27T05:42:42.598Z,-78
2016-09-27T05:47:39.452Z,-79
2016-09-27T05:52:36.111Z,-81
2016-09-27T05:57:32.423Z,-82
2016-09-27T06:02:29.400Z,-82
2016-09-27T06:07:25.895Z,-80
2016-09-27T06:12:22.744Z,-81
2016-09-27T06:17:19.344Z,-81
2016-09-27T06:22:15.636Z,-79
2016-09-27T06:27:12.317Z,-79
2016-09-27T06:32:09.728Z,-80
2016-09-27T06:37:06.201Z,-81
2016-09-27T06:42:02.821Z,-79
2016-09-27T06:46:59.728Z,-79
2016-09-27T06:51:56.253Z,-79
2016-09-27T06:56:53.337Z,-79
2016-09-27T07:01:50.168Z,-83
2016-09-27T07:06:47.012Z,-81
2016-09-27T07:11:43.987Z,-82
2016-09-27T07:16:40.912Z,-82
2016-09-27T07:21:37.397Z,-83
2016-09-27T07:26:35.178Z,-83
2016-09-27T07:31:31.658Z,-82
2016-09-27T07:36:28.083Z,-80
2016-09-27T07:41:25.287Z,-82
2016-09-27T07:46:21.542Z,-81
2016-09-27T07:51:18.287Z,-83
2016-09-27T07:56:15.312Z,-81
2016-09-27T08:01:11.637Z,-82
2016-09-27T08:06:09.044Z,-81
2016-09-27T08:11:06.268Z,-83
2016-09-27T08:16:04.926Z,-82
2016-09-27T08:21:01.347Z,-83
2016-09-27T08:25:57.994Z,-84
2016-09-27T08:30:55.024Z,-82
2016-09-27T08:35:51.826Z,-81
2016-09-27T08:40:48.255Z,-81
2016-09-27T08:45:47.311Z,-82
2016-09-27T08:50:43.471Z,-83
2016-09-27T08:55:40.055Z,-86
2016-09-27T09:00:36.707Z,-82
2016-09-27T09:05:33.465Z,-81
2016-09-27T09:10:30.035Z,-84
2016-09-27T09:15:26.717Z,-81
2016-09-27T09:20:23.537Z,-79
2016-09-27T09:25:20.295Z,-83
2016-09-27T09:30:17.047Z,-85
2016-09-27T09:35:13.536Z,-84
2016-09-27T09:40:10.429Z,-82
2016-09-27T09:45:06.986Z,-84
2016-09-27T09:50:03.334Z,-85
2016-09-27T09:55:00.004Z,-84
2016-09-27T09:59:56.961Z,-85
2016-09-27T10:04:53.701Z,-83
2016-09-27T10:09:50.940Z,-84
2016-09-27T10:14:47.547Z,-84
2016-09-27T10:19:44.706Z,-80
2016-09-27T10:24:42.530Z,-81
2016-09-27T10:29:39.090Z,-85
2016-09-27T10:34:35.904Z,-82
2016-09-27T10:39:33.488Z,-85
2016-09-27T10:44:29.871Z,-80
2016-09-27T10:49:26.868Z,-83
2016-09-27T10:54:23.726Z,-87
2016-09-27T10:59:21.049Z,-85
2016-09-27T11:04:21.106Z,-83
2016-09-27T11:09:21.907Z,-82
2016-09-27T11:14:21.769Z,-85
2016-09-27T11:19:20.155Z,-84
2016-09-27T11:24:18.924Z,-84
2016-09-27T11:29:18.693Z,-84
2016-09-27T11:34:16.677Z,-86
2016-09-27T11:39:13.070Z,-82
2016-09-27T11:44:10.895Z,-81
2016-09-27T11:49:08.387Z,-79
2016-09-27T11:54:05.663Z,-85
2016-09-27T11:59:01.012Z,-84
2016-09-27T12:03:59.366Z,-84
2016-09-27T12:08:56.026Z,-84
2016-09-27T12:13:50.122Z,-85
2016-09-27T12:18:49.516Z,-85
2016-09-27T12:23:42.649Z,-87
2016-09-27T12:28:38.138Z,-85
2016-09-27T12:33:34.492Z,-82
2016-09-27T12:38:29.357Z,-87
2016-09-27T12:43:24.662Z,-81
2016-09-27T12:48:20.703Z,-87
2016-09-27T12:53:17.060Z,-86
2016-09-27T12:58:14.460Z,-87
2016-09-27T13:03:12.635Z,-88
2016-09-27T13:08:08.206Z,-86
2016-09-27T13:13:04.134Z,-87
2016-09-27T13:18:01.010Z,-83
2016-09-27T13:22:56.877Z,-86
2016-09-27T13:27:53.637Z,-86
2016-09-27T13:32:50.443Z,-85
2016-09-27T13:37:46.983Z,-87
2016-09-27T13:42:44.319Z,-86
2016-09-27T13:47:41.489Z,-84
2016-09-27T13:52:39.441Z,-84
2016-09-27T13:57:37.180Z,-86
2016-09-27T14:07:40.403Z,-85
2016-09-27T14:12:36.088Z,-87
2016-09-27T14:17:32.061Z,-83
2016-09-27T14:22:28.358Z,-81
2016-09-27T14:27:24.701Z,-84
2016-09-27T14:32:21.216Z,-86
2016-09-27T14:37:17.910Z,-84
2016-09-27T14:42:15.695Z,-86
2016-09-27T14:47:11.978Z,-85
2016-09-27T14:52:09.587Z,-85
2016-09-27T14:57:06.210Z,-85
2016-09-27T15:02:04.342Z,-87
2016-09-27T15:07:00.590Z,-80
2016-09-27T15:11:58.186Z,-87
2016-09-27T15:16:54.409Z,-82
2016-09-27T15:21:51.182Z,-82
2016-09-27T15:26:48.087Z,-86
2016-09-27T15:31:44.663Z,-80
2016-09-27T15:36:42.323Z,-84
2016-09-27T15:41:38.578Z,-83
2016-09-27T15:46:35.188Z,-86
2016-09-27T15:51:31.970Z,-83
2016-09-27T15:56:28.360Z,-84
2016-09-27T16:01:25.205Z,-80
2016-09-27T16:06:21.903Z,-83
2016-09-27T16:11:18.778Z,-86
2016-09-27T16:16:14.928Z,-87
2016-09-27T16:21:11.727Z,-83
2016-09-27T16:26:08.242Z,-85
2016-09-27T16:31:04.931Z,-83
2016-09-27T16:36:01.366Z,-83
2016-09-27T16:40:57.866Z,-83
2016-09-27T16:45:54.031Z,-83
2016-09-27T16:50:50.915Z,-84
2016-09-27T16:55:47.369Z,-83
2016-09-27T17:00:44.171Z,-82
2016-09-27T17:05:40.448Z,-82
2016-09-27T17:10:36.889Z,-83
2016-09-27T17:15:33.298Z,-84
2016-09-27T17:20:30.264Z,-83
2016-09-27T17:25:26.972Z,-82
2016-09-27T17:30:23.522Z,-83
2016-09-27T17:35:20.089Z,-83
2016-09-27T17:40:16.650Z,-82
2016-09-27T17:45:13.267Z,-83
2016-09-27T17:50:09.762Z,-83
2016-09-27T17:55:07.465Z,-83
2016-09-27T18:00:03.812Z,-83
2016-09-27T18:05:00.132Z,-82
2016-09-27T18:09:56.612Z,-82
2016-09-27T18:14:53.290Z,-82
2016-09-27T18:19:50.148Z,-81
2016-09-27T18:24:47.566Z,-81
2016-09-27T18:29:43.912Z,-82
2016-09-27T18:34:40.565Z,-82
2016-09-27T18:39:37.604Z,-81
2016-09-27T18:44:34.161Z,-82
2016-09-27T18:49:30.870Z,-81
2016-09-27T18:54:27.660Z,-81
2016-09-27T18:59:24.453Z,-82
2016-09-27T19:04:22.311Z,-82
2016-09-27T19:09:18.351Z,-81
2016-09-27T19:14:14.683Z,-84
2016-09-27T19:19:11.302Z,-83
2016-09-27T19:24:07.816Z,-84
2016-09-27T19:29:05.147Z,-86
2016-09-27T19:34:01.904Z,-82
2016-09-27T19:38:58.455Z,-84
2016-09-27T19:43:55.155Z,-86
2016-09-27T19:48:51.693Z,-85
2016-09-27T19:53:47.680Z,-85
2016-09-27T19:58:44.287Z,-86
2016-09-27T20:03:40.924Z,-85
2016-09-27T20:08:37.587Z,-87
2016-09-27T20:13:34.669Z,-87
2016-09-27T20:18:31.106Z,-87
2016-09-27T20:23:28.276Z,-86
2016-09-27T20:28:25.077Z,-85
2016-09-27T20:33:21.378Z,-87
2016-09-27T20:38:17.812Z,-86
2016-09-27T20:43:14.274Z,-83
2016-09-27T20:48:11.053Z,-85
2016-09-27T20:53:07.955Z,-84
2016-09-27T20:58:04.847Z,-84
2016-09-27T21:03:02.862Z,-86
2016-09-27T21:07:59.142Z,-85
2016-09-27T21:12:55.500Z,-85
2016-09-27T21:17:51.711Z,-85
2016-09-27T21:22:48.842Z,-84
2016-09-27T21:27:44.984Z,-83
2016-09-27T21:32:41.877Z,-79
2016-09-27T21:37:40.414Z,-83
2016-09-27T21:42:38.251Z,-83
2016-09-27T21:47:34.269Z,-82
2016-09-27T21:52:31.135Z,-84
2016-09-27T21:57:27.468Z,-83
2016-09-27T22:02:24.488Z,-83
2016-09-27T22:07:20.842Z,-78
2016-09-27T22:12:17.258Z,-82
2016-09-27T22:17:14.325Z,-83
2016-09-27T22:22:12.048Z,-84
2016-09-27T22:27:08.731Z,-84
2016-09-27T22:32:05.088Z,-83
2016-09-27T22:37:01.641Z,-85
2016-09-27T22:41:58.515Z,-84
2016-09-27T22:46:54.986Z,-84
2016-09-27T22:51:53.036Z,-84
2016-09-27T22:56:49.449Z,-86
2016-09-27T23:01:46.384Z,-85
2016-09-27T23:06:43.239Z,-85
2016-09-27T23:11:40.010Z,-82
2016-09-27T23:16:36.963Z,-83
2016-09-27T23:21:33.715Z,-84
2016-09-27T23:26:30.417Z,-84
2016-09-27T23:31:26.848Z,-84
2016-09-27T23:36:24.089Z,-84
2016-09-27T23:41:20.455Z,-82
2016-09-27T23:46:18.371Z,-83
2016-09-27T23:51:14.384Z,-84
2016-09-27T23:56:11.421Z,-84
